sensor_id;sensor_type;location;lat;lon;timestamp;P1;durP1;ratioP1;P2;durP2;ratioP2
33844;SDS011;20145;43.118;25.694;2023-06-14T00:00:11;11.23;;;7.45;;
33844;SDS011;20145;43.118;25.694;2023-06-14T00:02:38;8.35;;;7.20;;
33844;SDS011;20145;43.118;25.694;2023-06-14T00:05:05;10.45;;;7.47;;
33844;SDS011;20145;43.118;25.694;2023-06-14T00:07:37;11.95;;;8.55;;
33844;SDS011;20145;43.118;25.694;2023-06-14T00:10:11;12.80;;;8.10;;
33844;SDS011;20145;43.118;25.694;2023-06-14T00:12:37;13.85;;;8.13;;
33844;SDS011;20145;43.118;25.694;2023-06-14T00:15:05;9.07;;;7.53;;
33844;SDS011;20145;43.118;25.694;2023-06-14T00:17:31;10.80;;;7.38;;
33844;SDS011;20145;43.118;25.694;2023-06-14T00:19:57;9.05;;;7.60;;
33844;SDS011;20145;43.118;25.694;2023-06-14T00:22:24;11.15;;;8.02;;
33844;SDS011;20145;43.118;25.694;2023-06-14T00:24:50;9.57;;;7.13;;
33844;SDS011;20145;43.118;25.694;2023-06-14T00:27:16;9.85;;;7.90;;
33844;SDS011;20145;43.118;25.694;2023-06-14T00:29:42;16.70;;;9.48;;
33844;SDS011;20145;43.118;25.694;2023-06-14T00:32:07;12.43;;;8.77;;
33844;SDS011;20145;43.118;25.694;2023-06-14T00:34:33;9.50;;;8.07;;
33844;SDS011;20145;43.118;25.694;2023-06-14T00:36:59;13.00;;;9.23;;
33844;SDS011;20145;43.118;25.694;2023-06-14T00:39:25;12.52;;;9.02;;
33844;SDS011;20145;43.118;25.694;2023-06-14T00:41:51;10.43;;;9.05;;
33844;SDS011;20145;43.118;25.694;2023-06-14T00:44:17;10.80;;;8.38;;
33844;SDS011;20145;43.118;25.694;2023-06-14T00:46:43;12.07;;;8.77;;
33844;SDS011;20145;43.118;25.694;2023-06-14T00:49:10;11.82;;;8.55;;
33844;SDS011;20145;43.118;25.694;2023-06-14T00:51:40;13.15;;;8.88;;
33844;SDS011;20145;43.118;25.694;2023-06-14T00:54:06;10.23;;;8.75;;
33844;SDS011;20145;43.118;25.694;2023-06-14T00:56:32;12.20;;;8.82;;
33844;SDS011;20145;43.118;25.694;2023-06-14T00:58:58;12.82;;;9.45;;
33844;SDS011;20145;43.118;25.694;2023-06-14T01:01:24;12.25;;;9.23;;
33844;SDS011;20145;43.118;25.694;2023-06-14T01:03:49;12.50;;;9.40;;
33844;SDS011;20145;43.118;25.694;2023-06-14T01:11:41;8.30;;;7.50;;
33844;SDS011;20145;43.118;25.694;2023-06-14T01:14:19;10.35;;;8.05;;
33844;SDS011;20145;43.118;25.694;2023-06-14T01:16:46;8.48;;;7.40;;
33844;SDS011;20145;43.118;25.694;2023-06-14T01:19:12;9.98;;;7.78;;
33844;SDS011;20145;43.118;25.694;2023-06-14T01:21:40;9.35;;;7.95;;
33844;SDS011;20145;43.118;25.694;2023-06-14T01:24:08;9.23;;;8.23;;
33844;SDS011;20145;43.118;25.694;2023-06-14T01:26:34;11.75;;;8.52;;
33844;SDS011;20145;43.118;25.694;2023-06-14T01:29:02;9.70;;;8.60;;
33844;SDS011;20145;43.118;25.694;2023-06-14T01:31:29;9.50;;;8.50;;
33844;SDS011;20145;43.118;25.694;2023-06-14T01:34:05;11.00;;;9.18;;
33844;SDS011;20145;43.118;25.694;2023-06-14T01:36:30;17.05;;;12.70;;
33844;SDS011;20145;43.118;25.694;2023-06-14T01:38:56;10.65;;;9.50;;
33844;SDS011;20145;43.118;25.694;2023-06-14T01:41:24;12.43;;;9.13;;
33844;SDS011;20145;43.118;25.694;2023-06-14T01:43:52;15.63;;;12.50;;
33844;SDS011;20145;43.118;25.694;2023-06-14T01:46:19;14.65;;;13.13;;
33844;SDS011;20145;43.118;25.694;2023-06-14T01:48:45;14.63;;;11.68;;
33844;SDS011;20145;43.118;25.694;2023-06-14T01:51:11;12.48;;;10.70;;
33844;SDS011;20145;43.118;25.694;2023-06-14T01:53:36;15.57;;;11.73;;
33844;SDS011;20145;43.118;25.694;2023-06-14T01:56:02;19.33;;;14.27;;
33844;SDS011;20145;43.118;25.694;2023-06-14T01:58:28;17.98;;;13.02;;
33844;SDS011;20145;43.118;25.694;2023-06-14T02:00:54;17.85;;;12.13;;
33844;SDS011;20145;43.118;25.694;2023-06-14T02:03:23;16.88;;;12.63;;
33844;SDS011;20145;43.118;25.694;2023-06-14T02:05:49;14.95;;;13.30;;
33844;SDS011;20145;43.118;25.694;2023-06-14T02:08:15;15.32;;;12.10;;
33844;SDS011;20145;43.118;25.694;2023-06-14T02:10:40;13.88;;;12.23;;
33844;SDS011;20145;43.118;25.694;2023-06-14T02:13:06;15.35;;;12.57;;
33844;SDS011;20145;43.118;25.694;2023-06-14T02:15:31;14.10;;;12.50;;
33844;SDS011;20145;43.118;25.694;2023-06-14T02:18:03;13.23;;;11.00;;
33844;SDS011;20145;43.118;25.694;2023-06-14T02:20:29;15.90;;;12.13;;
33844;SDS011;20145;43.118;25.694;2023-06-14T02:22:56;13.27;;;11.88;;
33844;SDS011;20145;43.118;25.694;2023-06-14T02:25:22;22.73;;;11.70;;
33844;SDS011;20145;43.118;25.694;2023-06-14T02:27:47;20.30;;;12.00;;
33844;SDS011;20145;43.118;25.694;2023-06-14T02:30:13;13.55;;;11.13;;
33844;SDS011;20145;43.118;25.694;2023-06-14T02:32:40;13.52;;;11.52;;
33844;SDS011;20145;43.118;25.694;2023-06-14T02:35:08;13.75;;;11.93;;
33844;SDS011;20145;43.118;25.694;2023-06-14T02:37:34;14.65;;;11.40;;
33844;SDS011;20145;43.118;25.694;2023-06-14T02:40:00;13.80;;;12.20;;
33844;SDS011;20145;43.118;25.694;2023-06-14T02:42:25;14.52;;;12.80;;
33844;SDS011;20145;43.118;25.694;2023-06-14T02:44:51;14.55;;;13.00;;
33844;SDS011;20145;43.118;25.694;2023-06-14T02:47:20;14.82;;;13.25;;
33844;SDS011;20145;43.118;25.694;2023-06-14T02:49:45;13.13;;;11.73;;
33844;SDS011;20145;43.118;25.694;2023-06-14T02:52:14;13.18;;;11.77;;
33844;SDS011;20145;43.118;25.694;2023-06-14T02:54:40;13.98;;;11.15;;
33844;SDS011;20145;43.118;25.694;2023-06-14T02:57:06;16.80;;;11.80;;
33844;SDS011;20145;43.118;25.694;2023-06-14T02:59:32;14.68;;;11.85;;
33844;SDS011;20145;43.118;25.694;2023-06-14T03:01:58;12.77;;;11.48;;
33844;SDS011;20145;43.118;25.694;2023-06-14T03:04:25;13.95;;;12.45;;
33844;SDS011;20145;43.118;25.694;2023-06-14T03:06:51;14.02;;;12.63;;
33844;SDS011;20145;43.118;25.694;2023-06-14T03:09:19;16.73;;;12.77;;
33844;SDS011;20145;43.118;25.694;2023-06-14T03:11:45;15.05;;;11.93;;
33844;SDS011;20145;43.118;25.694;2023-06-14T03:14:11;15.40;;;12.25;;
33844;SDS011;20145;43.118;25.694;2023-06-14T03:16:38;17.90;;;13.77;;
33844;SDS011;20145;43.118;25.694;2023-06-14T03:19:06;13.70;;;12.27;;
33844;SDS011;20145;43.118;25.694;2023-06-14T03:21:32;14.30;;;12.20;;
33844;SDS011;20145;43.118;25.694;2023-06-14T03:23:57;14.93;;;11.88;;
33844;SDS011;20145;43.118;25.694;2023-06-14T03:26:23;13.65;;;12.05;;
33844;SDS011;20145;43.118;25.694;2023-06-14T03:28:50;13.55;;;11.32;;
33844;SDS011;20145;43.118;25.694;2023-06-14T03:31:15;14.73;;;13.18;;
33844;SDS011;20145;43.118;25.694;2023-06-14T03:33:41;13.00;;;11.63;;
33844;SDS011;20145;43.118;25.694;2023-06-14T03:36:07;19.08;;;13.45;;
33844;SDS011;20145;43.118;25.694;2023-06-14T03:38:33;17.83;;;13.13;;
33844;SDS011;20145;43.118;25.694;2023-06-14T03:40:59;16.13;;;12.63;;
33844;SDS011;20145;43.118;25.694;2023-06-14T03:43:24;15.05;;;13.45;;
33844;SDS011;20145;43.118;25.694;2023-06-14T03:45:50;17.17;;;12.60;;
33844;SDS011;20145;43.118;25.694;2023-06-14T03:48:15;18.35;;;12.98;;
33844;SDS011;20145;43.118;25.694;2023-06-14T03:50:41;16.95;;;12.23;;
33844;SDS011;20145;43.118;25.694;2023-06-14T03:53:08;15.68;;;12.23;;
33844;SDS011;20145;43.118;25.694;2023-06-14T03:55:33;17.50;;;12.88;;
33844;SDS011;20145;43.118;25.694;2023-06-14T03:58:00;16.35;;;13.13;;
33844;SDS011;20145;43.118;25.694;2023-06-14T04:00:25;17.95;;;12.43;;
33844;SDS011;20145;43.118;25.694;2023-06-14T04:02:51;14.32;;;12.70;;
33844;SDS011;20145;43.118;25.694;2023-06-14T04:05:18;16.52;;;12.20;;
33844;SDS011;20145;43.118;25.694;2023-06-14T04:07:44;14.95;;;11.98;;
33844;SDS011;20145;43.118;25.694;2023-06-14T04:10:11;16.70;;;10.90;;
33844;SDS011;20145;43.118;25.694;2023-06-14T04:12:38;14.85;;;10.07;;
33844;SDS011;20145;43.118;25.694;2023-06-14T04:15:05;21.42;;;10.10;;
33844;SDS011;20145;43.118;25.694;2023-06-14T04:17:31;12.90;;;9.77;;
33844;SDS011;20145;43.118;25.694;2023-06-14T04:20:00;14.73;;;11.18;;
33844;SDS011;20145;43.118;25.694;2023-06-14T04:22:27;14.85;;;11.35;;
33844;SDS011;20145;43.118;25.694;2023-06-14T04:24:56;16.70;;;10.25;;
33844;SDS011;20145;43.118;25.694;2023-06-14T04:27:22;16.60;;;11.45;;
33844;SDS011;20145;43.118;25.694;2023-06-14T04:29:52;13.73;;;10.75;;
33844;SDS011;20145;43.118;25.694;2023-06-14T04:32:27;14.23;;;11.15;;
33844;SDS011;20145;43.118;25.694;2023-06-14T04:34:57;16.48;;;11.65;;
33844;SDS011;20145;43.118;25.694;2023-06-14T04:37:24;12.93;;;11.50;;
33844;SDS011;20145;43.118;25.694;2023-06-14T04:39:54;23.42;;;13.02;;
33844;SDS011;20145;43.118;25.694;2023-06-14T04:42:21;16.33;;;13.05;;
33844;SDS011;20145;43.118;25.694;2023-06-14T04:44:50;16.10;;;12.50;;
33844;SDS011;20145;43.118;25.694;2023-06-14T04:47:17;21.92;;;12.80;;
33844;SDS011;20145;43.118;25.694;2023-06-14T04:49:43;16.70;;;13.23;;
33844;SDS011;20145;43.118;25.694;2023-06-14T04:52:09;17.25;;;13.02;;
33844;SDS011;20145;43.118;25.694;2023-06-14T04:54:35;16.02;;;13.07;;
33844;SDS011;20145;43.118;25.694;2023-06-14T04:57:03;16.15;;;13.43;;
33844;SDS011;20145;43.118;25.694;2023-06-14T04:59:30;15.63;;;12.85;;
33844;SDS011;20145;43.118;25.694;2023-06-14T05:01:58;19.10;;;13.10;;
33844;SDS011;20145;43.118;25.694;2023-06-14T05:04:25;16.92;;;11.75;;
33844;SDS011;20145;43.118;25.694;2023-06-14T05:06:52;14.23;;;12.73;;
33844;SDS011;20145;43.118;25.694;2023-06-14T05:09:19;14.52;;;12.98;;
33844;SDS011;20145;43.118;25.694;2023-06-14T05:11:46;15.88;;;12.80;;
33844;SDS011;20145;43.118;25.694;2023-06-14T05:14:12;15.60;;;12.48;;
33844;SDS011;20145;43.118;25.694;2023-06-14T05:16:39;14.88;;;12.95;;
33844;SDS011;20145;43.118;25.694;2023-06-14T05:19:05;19.23;;;13.05;;
33844;SDS011;20145;43.118;25.694;2023-06-14T05:21:31;14.75;;;13.05;;
33844;SDS011;20145;43.118;25.694;2023-06-14T05:23:58;14.68;;;12.32;;
33844;SDS011;20145;43.118;25.694;2023-06-14T05:26:24;15.40;;;12.45;;
33844;SDS011;20145;43.118;25.694;2023-06-14T05:28:54;15.13;;;12.68;;
33844;SDS011;20145;43.118;25.694;2023-06-14T05:31:22;16.67;;;12.38;;
33844;SDS011;20145;43.118;25.694;2023-06-14T05:33:51;14.70;;;11.65;;
33844;SDS011;20145;43.118;25.694;2023-06-14T05:36:16;16.13;;;11.15;;
33844;SDS011;20145;43.118;25.694;2023-06-14T05:38:42;11.85;;;10.60;;
33844;SDS011;20145;43.118;25.694;2023-06-14T05:41:07;14.38;;;11.82;;
33844;SDS011;20145;43.118;25.694;2023-06-14T05:43:33;14.48;;;11.20;;
33844;SDS011;20145;43.118;25.694;2023-06-14T05:45:58;12.65;;;11.27;;
33844;SDS011;20145;43.118;25.694;2023-06-14T05:48:24;13.93;;;12.35;;
33844;SDS011;20145;43.118;25.694;2023-06-14T05:50:49;12.50;;;10.75;;
33844;SDS011;20145;43.118;25.694;2023-06-14T05:53:15;18.35;;;11.00;;
33844;SDS011;20145;43.118;25.694;2023-06-14T05:55:40;12.60;;;11.30;;
33844;SDS011;20145;43.118;25.694;2023-06-14T05:58:06;15.68;;;11.10;;
33844;SDS011;20145;43.118;25.694;2023-06-14T06:00:32;15.10;;;11.32;;
33844;SDS011;20145;43.118;25.694;2023-06-14T06:02:57;13.57;;;11.10;;
33844;SDS011;20145;43.118;25.694;2023-06-14T06:05:23;13.50;;;11.85;;
33844;SDS011;20145;43.118;25.694;2023-06-14T06:07:49;15.50;;;11.55;;
33844;SDS011;20145;43.118;25.694;2023-06-14T06:10:14;12.07;;;10.48;;
33844;SDS011;20145;43.118;25.694;2023-06-14T06:12:43;15.20;;;10.65;;
33844;SDS011;20145;43.118;25.694;2023-06-14T06:15:09;16.50;;;10.52;;
33844;SDS011;20145;43.118;25.694;2023-06-14T06:17:38;11.57;;;10.38;;
33844;SDS011;20145;43.118;25.694;2023-06-14T06:20:05;13.27;;;10.57;;
33844;SDS011;20145;43.118;25.694;2023-06-14T06:22:33;10.55;;;9.48;;
33844;SDS011;20145;43.118;25.694;2023-06-14T06:24:59;15.25;;;9.65;;
33844;SDS011;20145;43.118;25.694;2023-06-14T06:27:25;10.77;;;9.20;;
33844;SDS011;20145;43.118;25.694;2023-06-14T06:29:50;9.95;;;8.98;;
33844;SDS011;20145;43.118;25.694;2023-06-14T06:32:17;14.25;;;9.70;;
33844;SDS011;20145;43.118;25.694;2023-06-14T06:34:42;9.20;;;8.27;;
33844;SDS011;20145;43.118;25.694;2023-06-14T06:37:08;12.25;;;9.35;;
33844;SDS011;20145;43.118;25.694;2023-06-14T06:39:34;12.20;;;9.70;;
33844;SDS011;20145;43.118;25.694;2023-06-14T06:42:00;11.48;;;8.88;;
33844;SDS011;20145;43.118;25.694;2023-06-14T06:44:26;10.02;;;8.35;;
33844;SDS011;20145;43.118;25.694;2023-06-14T06:46:51;10.20;;;8.63;;
33844;SDS011;20145;43.118;25.694;2023-06-14T06:49:17;9.07;;;8.00;;
33844;SDS011;20145;43.118;25.694;2023-06-14T06:51:42;10.40;;;8.27;;
33844;SDS011;20145;43.118;25.694;2023-06-14T06:54:09;10.43;;;8.20;;
33844;SDS011;20145;43.118;25.694;2023-06-14T06:56:35;10.32;;;9.23;;
33844;SDS011;20145;43.118;25.694;2023-06-14T06:59:01;10.63;;;8.10;;
33844;SDS011;20145;43.118;25.694;2023-06-14T07:01:26;15.45;;;8.95;;
33844;SDS011;20145;43.118;25.694;2023-06-14T07:03:54;14.50;;;9.27;;
33844;SDS011;20145;43.118;25.694;2023-06-14T07:06:20;11.55;;;8.35;;
33844;SDS011;20145;43.118;25.694;2023-06-14T07:08:46;9.82;;;8.35;;
33844;SDS011;20145;43.118;25.694;2023-06-14T07:11:13;11.73;;;7.25;;
33844;SDS011;20145;43.118;25.694;2023-06-14T07:13:39;13.93;;;7.53;;
33844;SDS011;20145;43.118;25.694;2023-06-14T07:16:05;9.68;;;8.32;;
33844;SDS011;20145;43.118;25.694;2023-06-14T07:18:31;10.05;;;8.93;;
33844;SDS011;20145;43.118;25.694;2023-06-14T07:20:56;8.57;;;7.65;;
33844;SDS011;20145;43.118;25.694;2023-06-14T07:23:22;8.00;;;7.13;;
33844;SDS011;20145;43.118;25.694;2023-06-14T07:25:48;8.57;;;7.47;;
33844;SDS011;20145;43.118;25.694;2023-06-14T07:28:14;11.35;;;6.63;;
33844;SDS011;20145;43.118;25.694;2023-06-14T07:30:41;9.60;;;6.32;;
33844;SDS011;20145;43.118;25.694;2023-06-14T07:33:06;12.43;;;6.43;;
33844;SDS011;20145;43.118;25.694;2023-06-14T07:35:33;9.00;;;7.25;;
33844;SDS011;20145;43.118;25.694;2023-06-14T07:37:59;9.15;;;7.43;;
33844;SDS011;20145;43.118;25.694;2023-06-14T07:40:24;12.35;;;7.47;;
33844;SDS011;20145;43.118;25.694;2023-06-14T07:42:50;8.98;;;7.20;;
33844;SDS011;20145;43.118;25.694;2023-06-14T07:45:15;9.15;;;7.47;;
33844;SDS011;20145;43.118;25.694;2023-06-14T07:47:41;8.10;;;7.40;;
33844;SDS011;20145;43.118;25.694;2023-06-14T07:50:07;10.23;;;8.07;;
33844;SDS011;20145;43.118;25.694;2023-06-14T07:52:33;8.88;;;7.93;;
33844;SDS011;20145;43.118;25.694;2023-06-14T07:54:59;10.25;;;8.15;;
33844;SDS011;20145;43.118;25.694;2023-06-14T07:57:25;10.38;;;8.73;;
33844;SDS011;20145;43.118;25.694;2023-06-14T07:59:50;12.15;;;8.57;;
33844;SDS011;20145;43.118;25.694;2023-06-14T08:02:16;21.38;;;15.70;;
33844;SDS011;20145;43.118;25.694;2023-06-14T08:04:41;13.90;;;11.52;;
33844;SDS011;20145;43.118;25.694;2023-06-14T08:07:07;13.00;;;10.20;;
33844;SDS011;20145;43.118;25.694;2023-06-14T08:09:33;13.48;;;9.73;;
33844;SDS011;20145;43.118;25.694;2023-06-14T08:12:00;11.65;;;10.38;;
33844;SDS011;20145;43.118;25.694;2023-06-14T08:14:25;14.50;;;10.40;;
33844;SDS011;20145;43.118;25.694;2023-06-14T08:16:51;12.10;;;9.45;;
33844;SDS011;20145;43.118;25.694;2023-06-14T08:19:16;13.05;;;10.60;;
33844;SDS011;20145;43.118;25.694;2023-06-14T08:21:43;11.32;;;10.30;;
33844;SDS011;20145;43.118;25.694;2023-06-14T08:24:10;12.20;;;9.23;;
33844;SDS011;20145;43.118;25.694;2023-06-14T08:26:37;14.35;;;10.60;;
33844;SDS011;20145;43.118;25.694;2023-06-14T08:29:04;10.88;;;9.45;;
33844;SDS011;20145;43.118;25.694;2023-06-14T08:31:32;13.18;;;8.55;;
33844;SDS011;20145;43.118;25.694;2023-06-14T08:33:58;9.80;;;8.75;;
33844;SDS011;20145;43.118;25.694;2023-06-14T08:36:23;11.10;;;8.27;;
33844;SDS011;20145;43.118;25.694;2023-06-14T08:38:49;14.43;;;9.25;;
33844;SDS011;20145;43.118;25.694;2023-06-14T08:41:19;14.32;;;8.70;;
33844;SDS011;20145;43.118;25.694;2023-06-14T08:43:47;8.65;;;7.55;;
33844;SDS011;20145;43.118;25.694;2023-06-14T08:46:12;8.57;;;6.68;;
33844;SDS011;20145;43.118;25.694;2023-06-14T08:48:45;12.15;;;7.05;;
33844;SDS011;20145;43.118;25.694;2023-06-14T08:51:12;7.82;;;6.88;;
33844;SDS011;20145;43.118;25.694;2023-06-14T08:53:41;7.78;;;6.80;;
33844;SDS011;20145;43.118;25.694;2023-06-14T08:56:08;6.13;;;5.53;;
33844;SDS011;20145;43.118;25.694;2023-06-14T08:58:42;9.15;;;6.15;;
33844;SDS011;20145;43.118;25.694;2023-06-14T09:01:10;9.10;;;6.63;;
33844;SDS011;20145;43.118;25.694;2023-06-14T09:03:41;8.90;;;6.53;;
33844;SDS011;20145;43.118;25.694;2023-06-14T09:06:08;8.43;;;6.90;;
33844;SDS011;20145;43.118;25.694;2023-06-14T09:08:40;12.07;;;5.82;;
33844;SDS011;20145;43.118;25.694;2023-06-14T09:11:12;7.30;;;6.05;;
33844;SDS011;20145;43.118;25.694;2023-06-14T09:13:44;15.40;;;6.65;;
33844;SDS011;20145;43.118;25.694;2023-06-14T09:16:10;9.05;;;6.22;;
33844;SDS011;20145;43.118;25.694;2023-06-14T09:18:37;5.80;;;5.22;;
33844;SDS011;20145;43.118;25.694;2023-06-14T09:21:08;6.00;;;5.22;;
33844;SDS011;20145;43.118;25.694;2023-06-14T09:23:37;7.00;;;5.35;;
33844;SDS011;20145;43.118;25.694;2023-06-14T09:26:10;5.85;;;4.70;;
33844;SDS011;20145;43.118;25.694;2023-06-14T09:28:44;5.65;;;4.15;;
33844;SDS011;20145;43.118;25.694;2023-06-14T09:31:14;9.65;;;4.18;;
33844;SDS011;20145;43.118;25.694;2023-06-14T09:33:47;11.63;;;4.32;;
33844;SDS011;20145;43.118;25.694;2023-06-14T09:36:17;7.22;;;4.13;;
33844;SDS011;20145;43.118;25.694;2023-06-14T09:44:02;4.88;;;3.42;;
33844;SDS011;20145;43.118;25.694;2023-06-14T09:46:29;4.85;;;2.97;;
33844;SDS011;20145;43.118;25.694;2023-06-14T09:48:55;3.47;;;3.13;;
33844;SDS011;20145;43.118;25.694;2023-06-14T09:51:23;3.97;;;3.33;;
33844;SDS011;20145;43.118;25.694;2023-06-14T09:53:49;3.83;;;2.85;;
33844;SDS011;20145;43.118;25.694;2023-06-14T09:56:37;4.53;;;3.17;;
33844;SDS011;20145;43.118;25.694;2023-06-14T09:59:04;9.00;;;3.08;;
33844;SDS011;20145;43.118;25.694;2023-06-14T10:01:32;8.27;;;3.40;;
33844;SDS011;20145;43.118;25.694;2023-06-14T10:04:01;3.17;;;2.97;;
33844;SDS011;20145;43.118;25.694;2023-06-14T10:06:28;8.52;;;3.40;;
33844;SDS011;20145;43.118;25.694;2023-06-14T10:08:56;7.18;;;3.25;;
33844;SDS011;20145;43.118;25.694;2023-06-14T10:11:25;3.92;;;3.10;;
33844;SDS011;20145;43.118;25.694;2023-06-14T10:13:51;3.63;;;3.33;;
33844;SDS011;20145;43.118;25.694;2023-06-14T10:16:34;4.68;;;3.40;;
33844;SDS011;20145;43.118;25.694;2023-06-14T10:19:50;4.57;;;3.08;;
33844;SDS011;20145;43.118;25.694;2023-06-14T10:25:12;3.40;;;3.10;;
33844;SDS011;20145;43.118;25.694;2023-06-14T10:27:50;5.15;;;2.92;;
33844;SDS011;20145;43.118;25.694;2023-06-14T10:30:16;5.90;;;2.35;;
33844;SDS011;20145;43.118;25.694;2023-06-14T10:35:31;3.97;;;2.78;;
33844;SDS011;20145;43.118;25.694;2023-06-14T10:38:06;5.57;;;3.13;;
33844;SDS011;20145;43.118;25.694;2023-06-14T10:40:36;10.13;;;3.22;;
33844;SDS011;20145;43.118;25.694;2023-06-14T10:43:22;3.08;;;2.78;;
33844;SDS011;20145;43.118;25.694;2023-06-14T10:48:43;4.10;;;2.85;;
33844;SDS011;20145;43.118;25.694;2023-06-14T10:51:16;4.78;;;2.88;;
33844;SDS011;20145;43.118;25.694;2023-06-14T10:53:46;3.65;;;2.88;;
33844;SDS011;20145;43.118;25.694;2023-06-14T10:56:32;6.18;;;2.83;;
33844;SDS011;20145;43.118;25.694;2023-06-14T10:58:58;3.83;;;3.00;;
33844;SDS011;20145;43.118;25.694;2023-06-14T11:01:36;5.32;;;2.92;;
33844;SDS011;20145;43.118;25.694;2023-06-14T11:04:10;7.35;;;2.65;;
33844;SDS011;20145;43.118;25.694;2023-06-14T11:06:49;5.22;;;2.60;;
33844;SDS011;20145;43.118;25.694;2023-06-14T11:11:59;6.60;;;3.10;;
33844;SDS011;20145;43.118;25.694;2023-06-14T11:14:29;3.30;;;2.40;;
33844;SDS011;20145;43.118;25.694;2023-06-14T11:16:56;4.82;;;2.30;;
33844;SDS011;20145;43.118;25.694;2023-06-14T11:19:21;4.35;;;2.50;;
33844;SDS011;20145;43.118;25.694;2023-06-14T11:21:48;3.25;;;2.17;;
33844;SDS011;20145;43.118;25.694;2023-06-14T11:24:19;4.70;;;2.55;;
33844;SDS011;20145;43.118;25.694;2023-06-14T11:26:46;6.55;;;2.50;;
33844;SDS011;20145;43.118;25.694;2023-06-14T11:29:15;5.85;;;2.75;;
33844;SDS011;20145;43.118;25.694;2023-06-14T11:31:44;4.53;;;2.45;;
33844;SDS011;20145;43.118;25.694;2023-06-14T11:34:11;3.95;;;2.47;;
33844;SDS011;20145;43.118;25.694;2023-06-14T11:36:38;5.82;;;2.60;;
33844;SDS011;20145;43.118;25.694;2023-06-14T11:39:05;2.70;;;2.50;;
33844;SDS011;20145;43.118;25.694;2023-06-14T11:41:43;5.53;;;2.35;;
33844;SDS011;20145;43.118;25.694;2023-06-14T11:44:10;3.05;;;2.78;;
33844;SDS011;20145;43.118;25.694;2023-06-14T11:46:37;3.35;;;2.78;;
33844;SDS011;20145;43.118;25.694;2023-06-14T11:49:03;3.72;;;2.70;;
33844;SDS011;20145;43.118;25.694;2023-06-14T11:51:35;10.45;;;2.65;;
33844;SDS011;20145;43.118;25.694;2023-06-14T11:54:02;5.25;;;2.60;;
33844;SDS011;20145;43.118;25.694;2023-06-14T11:56:29;4.78;;;2.67;;
33844;SDS011;20145;43.118;25.694;2023-06-14T11:58:56;7.72;;;3.08;;
33844;SDS011;20145;43.118;25.694;2023-06-14T12:01:22;5.90;;;2.47;;
33844;SDS011;20145;43.118;25.694;2023-06-14T12:03:48;2.85;;;2.55;;
33844;SDS011;20145;43.118;25.694;2023-06-14T12:06:15;4.07;;;3.22;;
33844;SDS011;20145;43.118;25.694;2023-06-14T12:08:43;5.03;;;3.28;;
33844;SDS011;20145;43.118;25.694;2023-06-14T12:11:13;3.40;;;3.10;;
33844;SDS011;20145;43.118;25.694;2023-06-14T12:13:39;6.38;;;3.47;;
33844;SDS011;20145;43.118;25.694;2023-06-14T12:16:08;5.10;;;3.10;;
33844;SDS011;20145;43.118;25.694;2023-06-14T12:18:35;4.35;;;3.30;;
33844;SDS011;20145;43.118;25.694;2023-06-14T12:21:05;5.90;;;3.67;;
33844;SDS011;20145;43.118;25.694;2023-06-14T12:23:48;7.20;;;3.60;;
33844;SDS011;20145;43.118;25.694;2023-06-14T12:26:15;4.53;;;3.88;;
33844;SDS011;20145;43.118;25.694;2023-06-14T12:28:42;5.38;;;3.22;;
33844;SDS011;20145;43.118;25.694;2023-06-14T12:31:10;6.30;;;3.60;;
33844;SDS011;20145;43.118;25.694;2023-06-14T12:33:37;3.63;;;3.13;;
33844;SDS011;20145;43.118;25.694;2023-06-14T12:36:03;8.95;;;4.35;;
33844;SDS011;20145;43.118;25.694;2023-06-14T12:38:30;4.45;;;3.45;;
33844;SDS011;20145;43.118;25.694;2023-06-14T12:40:56;3.97;;;2.80;;
33844;SDS011;20145;43.118;25.694;2023-06-14T12:43:23;4.63;;;2.60;;
33844;SDS011;20145;43.118;25.694;2023-06-14T12:45:49;5.95;;;3.03;;
33844;SDS011;20145;43.118;25.694;2023-06-14T12:48:14;4.95;;;3.60;;
33844;SDS011;20145;43.118;25.694;2023-06-14T12:50:40;5.20;;;3.42;;
33844;SDS011;20145;43.118;25.694;2023-06-14T12:53:06;4.55;;;3.90;;
33844;SDS011;20145;43.118;25.694;2023-06-14T12:55:32;5.60;;;3.33;;
33844;SDS011;20145;43.118;25.694;2023-06-14T12:57:58;18.58;;;4.32;;
33844;SDS011;20145;43.118;25.694;2023-06-14T13:00:24;3.50;;;3.20;;
33844;SDS011;20145;43.118;25.694;2023-06-14T13:05:20;4.40;;;3.22;;
33844;SDS011;20145;43.118;25.694;2023-06-14T13:07:46;5.35;;;3.03;;
33844;SDS011;20145;43.118;25.694;2023-06-14T13:10:11;5.45;;;3.35;;
33844;SDS011;20145;43.118;25.694;2023-06-14T13:12:37;6.85;;;4.43;;
33844;SDS011;20145;43.118;25.694;2023-06-14T13:15:03;8.38;;;3.28;;
33844;SDS011;20145;43.118;25.694;2023-06-14T13:17:28;3.22;;;3.00;;
33844;SDS011;20145;43.118;25.694;2023-06-14T13:19:54;7.97;;;7.10;;
33844;SDS011;20145;43.118;25.694;2023-06-14T13:22:19;6.20;;;3.10;;
33844;SDS011;20145;43.118;25.694;2023-06-14T13:24:45;4.15;;;3.35;;
33844;SDS011;20145;43.118;25.694;2023-06-14T13:27:11;3.50;;;3.05;;
33844;SDS011;20145;43.118;25.694;2023-06-14T13:29:39;4.60;;;2.80;;
33844;SDS011;20145;43.118;25.694;2023-06-14T13:32:05;4.95;;;2.92;;
33844;SDS011;20145;43.118;25.694;2023-06-14T13:34:31;4.57;;;2.90;;
33844;SDS011;20145;43.118;25.694;2023-06-14T13:36:56;5.70;;;3.13;;
33844;SDS011;20145;43.118;25.694;2023-06-14T13:39:24;3.33;;;3.03;;
33844;SDS011;20145;43.118;25.694;2023-06-14T13:41:50;7.13;;;2.90;;
33844;SDS011;20145;43.118;25.694;2023-06-14T13:44:16;4.38;;;3.38;;
33844;SDS011;20145;43.118;25.694;2023-06-14T13:46:44;6.75;;;3.28;;
33844;SDS011;20145;43.118;25.694;2023-06-14T13:49:10;4.05;;;2.70;;
33844;SDS011;20145;43.118;25.694;2023-06-14T13:51:35;6.13;;;3.47;;
33844;SDS011;20145;43.118;25.694;2023-06-14T13:54:01;4.18;;;3.00;;
33844;SDS011;20145;43.118;25.694;2023-06-14T13:56:27;5.00;;;3.20;;
33844;SDS011;20145;43.118;25.694;2023-06-14T13:58:52;5.45;;;3.40;;
33844;SDS011;20145;43.118;25.694;2023-06-14T14:01:18;3.97;;;3.03;;
33844;SDS011;20145;43.118;25.694;2023-06-14T14:03:49;4.32;;;2.80;;
33844;SDS011;20145;43.118;25.694;2023-06-14T14:06:15;6.53;;;3.25;;
33844;SDS011;20145;43.118;25.694;2023-06-14T14:08:41;12.60;;;4.28;;
33844;SDS011;20145;43.118;25.694;2023-06-14T14:11:07;3.42;;;2.95;;
33844;SDS011;20145;43.118;25.694;2023-06-14T14:13:34;19.05;;;4.75;;
33844;SDS011;20145;43.118;25.694;2023-06-14T14:16:02;7.25;;;3.08;;
33844;SDS011;20145;43.118;25.694;2023-06-14T14:18:28;6.45;;;2.72;;
33844;SDS011;20145;43.118;25.694;2023-06-14T14:20:54;3.60;;;2.60;;
33844;SDS011;20145;43.118;25.694;2023-06-14T14:23:21;3.60;;;2.85;;
33844;SDS011;20145;43.118;25.694;2023-06-14T14:25:47;3.22;;;2.80;;
33844;SDS011;20145;43.118;25.694;2023-06-14T14:28:13;3.72;;;2.70;;
33844;SDS011;20145;43.118;25.694;2023-06-14T14:30:41;3.53;;;2.70;;
33844;SDS011;20145;43.118;25.694;2023-06-14T14:33:07;11.05;;;2.90;;
33844;SDS011;20145;43.118;25.694;2023-06-14T14:35:33;4.40;;;3.30;;
33844;SDS011;20145;43.118;25.694;2023-06-14T14:38:00;3.88;;;2.78;;
33844;SDS011;20145;43.118;25.694;2023-06-14T14:40:25;3.47;;;2.75;;
33844;SDS011;20145;43.118;25.694;2023-06-14T14:42:51;3.45;;;2.83;;
33844;SDS011;20145;43.118;25.694;2023-06-14T14:45:17;4.95;;;3.03;;
33844;SDS011;20145;43.118;25.694;2023-06-14T14:47:42;4.72;;;2.65;;